sensor_id;sensor_type;location;lat;lon;timestamp;P1;durP1;ratioP1;P2;durP2;ratioP2
11839;SDS011;5979;50.800;4.904;2023-12-20T00:00:59;4.32;;;2.00;;
11839;SDS011;5979;50.800;4.904;2023-12-20T00:03:25;4.40;;;2.28;;
11839;SDS011;5979;50.800;4.904;2023-12-20T00:05:50;4.50;;;2.70;;
11839;SDS011;5979;50.800;4.904;2023-12-20T00:08:16;6.32;;;2.53;;
11839;SDS011;5979;50.800;4.904;2023-12-20T00:10:45;5.25;;;2.40;;
11839;SDS011;5979;50.800;4.904;2023-12-20T00:13:11;9.98;;;2.53;;
11839;SDS011;5979;50.800;4.904;2023-12-20T00:15:36;6.70;;;2.70;;
11839;SDS011;5979;50.800;4.904;2023-12-20T00:18:02;10.10;;;2.85;;
11839;SDS011;5979;50.800;4.904;2023-12-20T00:20:28;6.85;;;2.33;;
11839;SDS011;5979;50.800;4.904;2023-12-20T00:22:55;6.25;;;3.10;;
11839;SDS011;5979;50.800;4.904;2023-12-20T00:25:23;7.53;;;2.70;;
11839;SDS011;5979;50.800;4.904;2023-12-20T00:27:49;5.95;;;2.83;;
11839;SDS011;5979;50.800;4.904;2023-12-20T00:30:15;8.55;;;2.92;;
11839;SDS011;5979;50.800;4.904;2023-12-20T00:32:40;4.75;;;2.45;;
11839;SDS011;5979;50.800;4.904;2023-12-20T00:35:14;7.63;;;2.70;;
11839;SDS011;5979;50.800;4.904;2023-12-20T00:37:41;6.20;;;2.35;;
11839;SDS011;5979;50.800;4.904;2023-12-20T00:40:07;6.60;;;2.55;;
11839;SDS011;5979;50.800;4.904;2023-12-20T00:42:33;10.50;;;3.15;;
11839;SDS011;5979;50.800;4.904;2023-12-20T00:44:59;6.63;;;2.33;;
11839;SDS011;5979;50.800;4.904;2023-12-20T00:47:25;6.25;;;2.20;;
11839;SDS011;5979;50.800;4.904;2023-12-20T00:49:51;3.60;;;2.22;;
11839;SDS011;5979;50.800;4.904;2023-12-20T00:52:17;5.40;;;2.63;;
11839;SDS011;5979;50.800;4.904;2023-12-20T00:54:43;6.88;;;2.30;;
11839;SDS011;5979;50.800;4.904;2023-12-20T00:57:09;6.72;;;2.00;;
11839;SDS011;5979;50.800;4.904;2023-12-20T00:59:35;5.70;;;2.30;;
11839;SDS011;5979;50.800;4.904;2023-12-20T01:02:01;7.22;;;2.53;;
11839;SDS011;5979;50.800;4.904;2023-12-20T01:04:27;10.82;;;2.80;;
11839;SDS011;5979;50.800;4.904;2023-12-20T01:06:53;6.80;;;2.30;;
11839;SDS011;5979;50.800;4.904;2023-12-20T01:09:19;4.15;;;2.28;;
11839;SDS011;5979;50.800;4.904;2023-12-20T01:11:45;4.80;;;2.33;;
11839;SDS011;5979;50.800;4.904;2023-12-20T01:14:13;5.43;;;2.47;;
11839;SDS011;5979;50.800;4.904;2023-12-20T01:16:38;4.03;;;2.10;;
11839;SDS011;5979;50.800;4.904;2023-12-20T01:19:04;6.13;;;2.50;;
11839;SDS011;5979;50.800;4.904;2023-12-20T01:21:30;5.43;;;2.65;;
11839;SDS011;5979;50.800;4.904;2023-12-20T01:23:55;6.32;;;2.70;;
11839;SDS011;5979;50.800;4.904;2023-12-20T01:26:21;9.65;;;2.60;;
11839;SDS011;5979;50.800;4.904;2023-12-20T01:28:47;6.78;;;2.42;;
11839;SDS011;5979;50.800;4.904;2023-12-20T01:31:12;6.20;;;2.20;;
11839;SDS011;5979;50.800;4.904;2023-12-20T01:33:42;5.10;;;2.55;;
11839;SDS011;5979;50.800;4.904;2023-12-20T01:36:07;5.38;;;1.92;;
11839;SDS011;5979;50.800;4.904;2023-12-20T01:38:34;6.25;;;2.55;;
11839;SDS011;5979;50.800;4.904;2023-12-20T01:40:59;5.95;;;2.40;;
11839;SDS011;5979;50.800;4.904;2023-12-20T01:43:25;6.20;;;2.40;;
11839;SDS011;5979;50.800;4.904;2023-12-20T01:45:51;3.65;;;2.05;;
11839;SDS011;5979;50.800;4.904;2023-12-20T01:48:17;5.57;;;2.25;;
11839;SDS011;5979;50.800;4.904;2023-12-20T01:50:44;10.02;;;3.40;;
11839;SDS011;5979;50.800;4.904;2023-12-20T01:53:11;3.67;;;2.38;;
11839;SDS011;5979;50.800;4.904;2023-12-20T01:55:39;6.80;;;2.25;;
11839;SDS011;5979;50.800;4.904;2023-12-20T01:58:06;5.57;;;2.58;;
11839;SDS011;5979;50.800;4.904;2023-12-20T02:00:33;7.30;;;2.63;;
11839;SDS011;5979;50.800;4.904;2023-12-20T02:03:00;6.32;;;2.92;;
11839;SDS011;5979;50.800;4.904;2023-12-20T02:05:30;10.10;;;2.70;;
11839;SDS011;5979;50.800;4.904;2023-12-20T02:07:56;6.88;;;2.92;;
11839;SDS011;5979;50.800;4.904;2023-12-20T02:10:22;8.82;;;3.13;;
11839;SDS011;5979;50.800;4.904;2023-12-20T02:12:49;4.90;;;2.40;;
11839;SDS011;5979;50.800;4.904;2023-12-20T02:15:14;6.53;;;2.63;;
11839;SDS011;5979;50.800;4.904;2023-12-20T02:17:40;5.32;;;2.65;;
11839;SDS011;5979;50.800;4.904;2023-12-20T02:20:06;8.45;;;2.92;;
11839;SDS011;5979;50.800;4.904;2023-12-20T02:22:32;8.70;;;2.88;;
11839;SDS011;5979;50.800;4.904;2023-12-20T02:24:58;5.30;;;2.28;;
11839;SDS011;5979;50.800;4.904;2023-12-20T02:27:23;11.38;;;3.17;;
11839;SDS011;5979;50.800;4.904;2023-12-20T02:29:49;9.32;;;3.08;;
11839;SDS011;5979;50.800;4.904;2023-12-20T02:32:19;7.20;;;2.47;;
11839;SDS011;5979;50.800;4.904;2023-12-20T02:34:46;8.88;;;2.80;;
11839;SDS011;5979;50.800;4.904;2023-12-20T02:37:12;5.97;;;2.80;;
11839;SDS011;5979;50.800;4.904;2023-12-20T02:39:38;11.05;;;3.25;;
11839;SDS011;5979;50.800;4.904;2023-12-20T02:42:04;9.80;;;4.35;;
11839;SDS011;5979;50.800;4.904;2023-12-20T02:44:29;8.68;;;2.65;;
11839;SDS011;5979;50.800;4.904;2023-12-20T02:46:55;6.97;;;2.90;;
11839;SDS011;5979;50.800;4.904;2023-12-20T02:49:21;6.38;;;2.92;;
11839;SDS011;5979;50.800;4.904;2023-12-20T02:51:46;9.88;;;3.10;;
11839;SDS011;5979;50.800;4.904;2023-12-20T02:54:12;14.80;;;3.72;;
11839;SDS011;5979;50.800;4.904;2023-12-20T02:56:38;6.53;;;3.08;;
11839;SDS011;5979;50.800;4.904;2023-12-20T02:59:03;9.63;;;3.05;;
11839;SDS011;5979;50.800;4.904;2023-12-20T03:01:33;9.50;;;2.90;;
11839;SDS011;5979;50.800;4.904;2023-12-20T03:03:59;8.32;;;2.75;;
11839;SDS011;5979;50.800;4.904;2023-12-20T03:06:25;6.85;;;2.97;;
11839;SDS011;5979;50.800;4.904;2023-12-20T03:08:51;8.38;;;3.20;;
11839;SDS011;5979;50.800;4.904;2023-12-20T03:11:17;7.80;;;3.35;;
11839;SDS011;5979;50.800;4.904;2023-12-20T03:13:43;6.97;;;3.25;;
11839;SDS011;5979;50.800;4.904;2023-12-20T03:16:09;9.25;;;2.90;;
11839;SDS011;5979;50.800;4.904;2023-12-20T03:18:35;6.10;;;2.80;;
11839;SDS011;5979;50.800;4.904;2023-12-20T03:21:01;7.72;;;2.92;;
11839;SDS011;5979;50.800;4.904;2023-12-20T03:23:27;6.65;;;3.00;;
11839;SDS011;5979;50.800;4.904;2023-12-20T03:25:55;11.32;;;3.08;;
11839;SDS011;5979;50.800;4.904;2023-12-20T03:28:21;8.15;;;3.15;;
11839;SDS011;5979;50.800;4.904;2023-12-20T03:30:48;8.50;;;3.05;;
11839;SDS011;5979;50.800;4.904;2023-12-20T03:33:14;6.05;;;3.10;;
11839;SDS011;5979;50.800;4.904;2023-12-20T03:35:40;6.65;;;4.00;;
11839;SDS011;5979;50.800;4.904;2023-12-20T03:38:05;10.88;;;3.60;;
11839;SDS011;5979;50.800;4.904;2023-12-20T03:40:31;12.00;;;3.47;;
11839;SDS011;5979;50.800;4.904;2023-12-20T03:42:57;8.77;;;3.97;;
11839;SDS011;5979;50.800;4.904;2023-12-20T03:45:25;5.13;;;3.15;;
11839;SDS011;5979;50.800;4.904;2023-12-20T03:47:50;11.13;;;3.65;;
11839;SDS011;5979;50.800;4.904;2023-12-20T03:50:23;9.73;;;4.03;;
11839;SDS011;5979;50.800;4.904;2023-12-20T03:52:48;7.20;;;4.05;;
11839;SDS011;5979;50.800;4.904;2023-12-20T03:55:15;7.07;;;3.92;;
11839;SDS011;5979;50.800;4.904;2023-12-20T03:57:40;10.55;;;4.43;;
11839;SDS011;5979;50.800;4.904;2023-12-20T04:00:10;7.68;;;4.22;;
11839;SDS011;5979;50.800;4.904;2023-12-20T04:02:36;8.38;;;3.88;;
11839;SDS011;5979;50.800;4.904;2023-12-20T04:05:03;16.17;;;4.05;;
11839;SDS011;5979;50.800;4.904;2023-12-20T04:07:33;14.57;;;4.50;;
11839;SDS011;5979;50.800;4.904;2023-12-20T04:10:00;11.57;;;4.43;;
11839;SDS011;5979;50.800;4.904;2023-12-20T04:12:26;14.80;;;4.30;;
11839;SDS011;5979;50.800;4.904;2023-12-20T04:14:53;7.38;;;3.65;;
11839;SDS011;5979;50.800;4.904;2023-12-20T04:17:19;8.13;;;4.20;;
11839;SDS011;5979;50.800;4.904;2023-12-20T04:19:45;10.68;;;4.20;;
11839;SDS011;5979;50.800;4.904;2023-12-20T04:22:11;6.47;;;3.70;;
11839;SDS011;5979;50.800;4.904;2023-12-20T04:24:37;9.48;;;3.70;;
11839;SDS011;5979;50.800;4.904;2023-12-20T04:27:02;10.13;;;4.25;;
11839;SDS011;5979;50.800;4.904;2023-12-20T04:29:28;10.35;;;4.38;;
11839;SDS011;5979;50.800;4.904;2023-12-20T04:31:54;10.15;;;4.55;;
11839;SDS011;5979;50.800;4.904;2023-12-20T04:34:20;7.00;;;3.80;;
11839;SDS011;5979;50.800;4.904;2023-12-20T04:36:47;9.35;;;4.95;;
11839;SDS011;5979;50.800;4.904;2023-12-20T04:39:13;8.13;;;3.78;;
11839;SDS011;5979;50.800;4.904;2023-12-20T04:41:40;9.73;;;3.63;;
11839;SDS011;5979;50.800;4.904;2023-12-20T04:44:05;8.48;;;3.60;;
11839;SDS011;5979;50.800;4.904;2023-12-20T04:46:31;8.57;;;4.10;;
11839;SDS011;5979;50.800;4.904;2023-12-20T04:48:57;9.20;;;3.92;;
11839;SDS011;5979;50.800;4.904;2023-12-20T04:51:23;14.15;;;4.10;;
11839;SDS011;5979;50.800;4.904;2023-12-20T04:53:48;8.93;;;3.92;;
11839;SDS011;5979;50.800;4.904;2023-12-20T04:56:14;5.50;;;3.50;;
11839;SDS011;5979;50.800;4.904;2023-12-20T04:58:40;12.40;;;3.83;;
11839;SDS011;5979;50.800;4.904;2023-12-20T05:01:06;8.65;;;4.13;;
11839;SDS011;5979;50.800;4.904;2023-12-20T05:03:32;7.53;;;3.65;;
11839;SDS011;5979;50.800;4.904;2023-12-20T05:05:58;5.88;;;4.05;;
11839;SDS011;5979;50.800;4.904;2023-12-20T05:08:23;11.68;;;3.72;;
11839;SDS011;5979;50.800;4.904;2023-12-20T05:10:50;5.78;;;3.10;;
11839;SDS011;5979;50.800;4.904;2023-12-20T05:13:17;10.43;;;3.80;;
11839;SDS011;5979;50.800;4.904;2023-12-20T05:15:46;11.57;;;3.95;;
11839;SDS011;5979;50.800;4.904;2023-12-20T05:18:12;5.90;;;3.13;;
11839;SDS011;5979;50.800;4.904;2023-12-20T05:20:38;6.95;;;4.22;;
11839;SDS011;5979;50.800;4.904;2023-12-20T05:23:03;9.32;;;3.97;;
11839;SDS011;5979;50.800;4.904;2023-12-20T05:25:30;13.20;;;3.97;;
11839;SDS011;5979;50.800;4.904;2023-12-20T05:27:55;7.68;;;4.00;;
11839;SDS011;5979;50.800;4.904;2023-12-20T05:30:21;10.93;;;3.70;;
11839;SDS011;5979;50.800;4.904;2023-12-20T05:32:47;9.40;;;4.10;;
11839;SDS011;5979;50.800;4.904;2023-12-20T05:35:13;7.60;;;4.00;;
11839;SDS011;5979;50.800;4.904;2023-12-20T05:37:39;9.40;;;4.55;;
11839;SDS011;5979;50.800;4.904;2023-12-20T05:40:05;11.13;;;4.55;;
11839;SDS011;5979;50.800;4.904;2023-12-20T05:42:31;14.32;;;4.95;;
11839;SDS011;5979;50.800;4.904;2023-12-20T05:44:56;9.20;;;4.25;;
11839;SDS011;5979;50.800;4.904;2023-12-20T05:47:22;11.43;;;4.20;;
11839;SDS011;5979;50.800;4.904;2023-12-20T05:49:48;7.20;;;3.75;;
11839;SDS011;5979;50.800;4.904;2023-12-20T05:52:15;9.38;;;4.20;;
11839;SDS011;5979;50.800;4.904;2023-12-20T05:54:40;7.57;;;4.25;;
11839;SDS011;5979;50.800;4.904;2023-12-20T05:57:06;8.82;;;4.47;;
11839;SDS011;5979;50.800;4.904;2023-12-20T05:59:32;13.57;;;4.70;;
11839;SDS011;5979;50.800;4.904;2023-12-20T06:01:57;9.35;;;4.60;;
11839;SDS011;5979;50.800;4.904;2023-12-20T06:04:23;10.88;;;4.47;;
11839;SDS011;5979;50.800;4.904;2023-12-20T06:06:49;10.98;;;4.28;;
11839;SDS011;5979;50.800;4.904;2023-12-20T06:09:14;8.60;;;4.22;;
11839;SDS011;5979;50.800;4.904;2023-12-20T06:11:40;11.43;;;4.60;;
11839;SDS011;5979;50.800;4.904;2023-12-20T06:14:06;10.30;;;4.25;;
11839;SDS011;5979;50.800;4.904;2023-12-20T06:16:32;10.23;;;4.15;;
11839;SDS011;5979;50.800;4.904;2023-12-20T06:18:57;9.20;;;4.20;;
11839;SDS011;5979;50.800;4.904;2023-12-20T06:21:23;12.00;;;4.45;;
11839;SDS011;5979;50.800;4.904;2023-12-20T06:23:49;11.50;;;4.40;;
11839;SDS011;5979;50.800;4.904;2023-12-20T06:26:15;12.68;;;4.22;;
11839;SDS011;5979;50.800;4.904;2023-12-20T06:28:40;12.77;;;5.10;;
11839;SDS011;5979;50.800;4.904;2023-12-20T06:31:06;10.65;;;4.75;;
11839;SDS011;5979;50.800;4.904;2023-12-20T06:33:31;9.60;;;3.85;;
11839;SDS011;5979;50.800;4.904;2023-12-20T06:35:57;8.90;;;3.90;;
11839;SDS011;5979;50.800;4.904;2023-12-20T06:38:23;11.20;;;4.60;;
11839;SDS011;5979;50.800;4.904;2023-12-20T06:40:48;12.90;;;4.65;;
11839;SDS011;5979;50.800;4.904;2023-12-20T06:43:14;7.20;;;4.30;;
11839;SDS011;5979;50.800;4.904;2023-12-20T06:45:40;12.68;;;4.25;;
11839;SDS011;5979;50.800;4.904;2023-12-20T06:48:06;10.57;;;4.28;;
11839;SDS011;5979;50.800;4.904;2023-12-20T06:50:32;9.40;;;4.15;;
11839;SDS011;5979;50.800;4.904;2023-12-20T06:52:57;7.45;;;3.88;;
11839;SDS011;5979;50.800;4.904;2023-12-20T06:55:23;11.55;;;4.22;;
11839;SDS011;5979;50.800;4.904;2023-12-20T06:57:49;9.45;;;3.95;;
11839;SDS011;5979;50.800;4.904;2023-12-20T07:00:15;8.82;;;3.90;;
11839;SDS011;5979;50.800;4.904;2023-12-20T07:02:41;8.07;;;4.00;;
11839;SDS011;5979;50.800;4.904;2023-12-20T07:05:07;13.77;;;3.80;;
11839;SDS011;5979;50.800;4.904;2023-12-20T07:07:32;7.15;;;3.55;;
11839;SDS011;5979;50.800;4.904;2023-12-20T07:09:58;11.20;;;4.13;;
11839;SDS011;5979;50.800;4.904;2023-12-20T07:12:24;9.70;;;3.83;;
11839;SDS011;5979;50.800;4.904;2023-12-20T07:14:50;11.10;;;3.47;;
11839;SDS011;5979;50.800;4.904;2023-12-20T07:17:15;7.78;;;3.53;;
11839;SDS011;5979;50.800;4.904;2023-12-20T07:19:41;9.88;;;4.20;;
11839;SDS011;5979;50.800;4.904;2023-12-20T07:22:07;9.30;;;3.38;;
11839;SDS011;5979;50.800;4.904;2023-12-20T07:24:33;7.45;;;3.10;;
11839;SDS011;5979;50.800;4.904;2023-12-20T07:26:59;8.00;;;3.53;;
11839;SDS011;5979;50.800;4.904;2023-12-20T07:29:25;8.45;;;3.60;;
11839;SDS011;5979;50.800;4.904;2023-12-20T07:31:52;10.68;;;3.50;;
11839;SDS011;5979;50.800;4.904;2023-12-20T07:34:19;8.23;;;3.38;;
11839;SDS011;5979;50.800;4.904;2023-12-20T07:36:47;11.27;;;3.85;;
11839;SDS011;5979;50.800;4.904;2023-12-20T07:39:14;6.72;;;3.47;;
11839;SDS011;5979;50.800;4.904;2023-12-20T07:41:39;7.40;;;3.22;;
11839;SDS011;5979;50.800;4.904;2023-12-20T07:44:06;9.60;;;3.88;;
11839;SDS011;5979;50.800;4.904;2023-12-20T07:46:31;6.60;;;2.92;;
11839;SDS011;5979;50.800;4.904;2023-12-20T07:48:57;9.00;;;3.40;;
11839;SDS011;5979;50.800;4.904;2023-12-20T07:51:23;11.50;;;3.00;;
11839;SDS011;5979;50.800;4.904;2023-12-20T07:53:48;5.68;;;3.08;;
11839;SDS011;5979;50.800;4.904;2023-12-20T07:56:18;12.98;;;4.07;;
11839;SDS011;5979;50.800;4.904;2023-12-20T07:58:44;6.72;;;3.42;;
11839;SDS011;5979;50.800;4.904;2023-12-20T08:01:11;10.40;;;2.70;;
11839;SDS011;5979;50.800;4.904;2023-12-20T08:03:37;9.02;;;2.97;;
11839;SDS011;5979;50.800;4.904;2023-12-20T08:06:09;6.18;;;2.75;;
11839;SDS011;5979;50.800;4.904;2023-12-20T08:08:34;11.35;;;3.55;;
11839;SDS011;5979;50.800;4.904;2023-12-20T08:11:00;7.03;;;2.88;;
11839;SDS011;5979;50.800;4.904;2023-12-20T08:13:26;8.40;;;2.75;;
11839;SDS011;5979;50.800;4.904;2023-12-20T08:15:52;8.80;;;2.85;;
11839;SDS011;5979;50.800;4.904;2023-12-20T08:18:18;6.57;;;3.10;;
11839;SDS011;5979;50.800;4.904;2023-12-20T08:20:44;9.57;;;3.30;;
11839;SDS011;5979;50.800;4.904;2023-12-20T08:23:10;12.00;;;3.63;;
11839;SDS011;5979;50.800;4.904;2023-12-20T08:25:35;10.85;;;3.05;;
11839;SDS011;5979;50.800;4.904;2023-12-20T08:28:04;7.65;;;3.00;;
11839;SDS011;5979;50.800;4.904;2023-12-20T08:30:30;7.97;;;2.80;;
11839;SDS011;5979;50.800;4.904;2023-12-20T08:32:59;8.35;;;2.92;;
11839;SDS011;5979;50.800;4.904;2023-12-20T08:35:25;6.07;;;3.13;;
11839;SDS011;5979;50.800;4.904;2023-12-20T08:37:51;8.98;;;3.30;;
11839;SDS011;5979;50.800;4.904;2023-12-20T08:40:17;8.48;;;3.42;;
11839;SDS011;5979;50.800;4.904;2023-12-20T08:42:42;12.73;;;3.47;;
11839;SDS011;5979;50.800;4.904;2023-12-20T08:45:09;9.82;;;3.05;;
11839;SDS011;5979;50.800;4.904;2023-12-20T08:47:35;9.23;;;2.70;;
11839;SDS011;5979;50.800;4.904;2023-12-20T08:50:02;8.35;;;3.03;;
11839;SDS011;5979;50.800;4.904;2023-12-20T08:52:28;7.00;;;3.22;;
11839;SDS011;5979;50.800;4.904;2023-12-20T08:54:54;6.28;;;3.47;;
11839;SDS011;5979;50.800;4.904;2023-12-20T08:57:20;5.88;;;2.97;;
11839;SDS011;5979;50.800;4.904;2023-12-20T08:59:47;7.65;;;2.40;;
11839;SDS011;5979;50.800;4.904;2023-12-20T09:02:13;9.63;;;3.30;;
11839;SDS011;5979;50.800;4.904;2023-12-20T09:04:39;5.13;;;2.65;;
11839;SDS011;5979;50.800;4.904;2023-12-20T09:07:22;8.55;;;3.13;;
11839;SDS011;5979;50.800;4.904;2023-12-20T09:09:48;6.72;;;2.85;;
11839;SDS011;5979;50.800;4.904;2023-12-20T09:12:14;8.90;;;2.75;;
11839;SDS011;5979;50.800;4.904;2023-12-20T09:14:40;7.72;;;2.80;;
11839;SDS011;5979;50.800;4.904;2023-12-20T09:17:06;8.75;;;3.08;;
11839;SDS011;5979;50.800;4.904;2023-12-20T09:19:34;8.75;;;3.50;;
11839;SDS011;5979;50.800;4.904;2023-12-20T09:21:59;10.77;;;3.25;;
11839;SDS011;5979;50.800;4.904;2023-12-20T09:24:26;6.88;;;2.80;;
11839;SDS011;5979;50.800;4.904;2023-12-20T09:26:52;7.40;;;2.70;;
11839;SDS011;5979;50.800;4.904;2023-12-20T09:29:18;5.00;;;2.78;;
11839;SDS011;5979;50.800;4.904;2023-12-20T09:31:44;6.47;;;2.97;;
11839;SDS011;5979;50.800;4.904;2023-12-20T09:34:11;7.03;;;2.35;;
11839;SDS011;5979;50.800;4.904;2023-12-20T09:36:37;7.05;;;3.05;;
11839;SDS011;5979;50.800;4.904;2023-12-20T09:39:05;12.65;;;2.92;;
11839;SDS011;5979;50.800;4.904;2023-12-20T09:41:31;5.82;;;2.70;;
11839;SDS011;5979;50.800;4.904;2023-12-20T09:44:02;10.93;;;3.15;;
11839;SDS011;5979;50.800;4.904;2023-12-20T09:46:33;11.02;;;3.20;;
11839;SDS011;5979;50.800;4.904;2023-12-20T09:49:04;5.47;;;2.60;;
11839;SDS011;5979;50.800;4.904;2023-12-20T09:51:31;7.07;;;3.17;;
11839;SDS011;5979;50.800;4.904;2023-12-20T09:53:57;8.57;;;3.30;;
11839;SDS011;5979;50.800;4.904;2023-12-20T09:56:24;8.82;;;3.20;;
11839;SDS011;5979;50.800;4.904;2023-12-20T09:58:50;12.32;;;3.15;;
11839;SDS011;5979;50.800;4.904;2023-12-20T10:01:16;11.60;;;3.15;;
11839;SDS011;5979;50.800;4.904;2023-12-20T10:03:43;6.75;;;2.53;;
11839;SDS011;5979;50.800;4.904;2023-12-20T10:06:09;10.15;;;3.25;;
11839;SDS011;5979;50.800;4.904;2023-12-20T10:08:35;8.27;;;3.72;;
11839;SDS011;5979;50.800;4.904;2023-12-20T10:11:01;6.70;;;2.97;;
11839;SDS011;5979;50.800;4.904;2023-12-20T10:13:29;8.27;;;3.15;;
11839;SDS011;5979;50.800;4.904;2023-12-20T10:15:55;7.70;;;2.90;;
11839;SDS011;5979;50.800;4.904;2023-12-20T10:18:20;6.95;;;2.88;;
11839;SDS011;5979;50.800;4.904;2023-12-20T10:20:46;5.90;;;2.92;;
11839;SDS011;5979;50.800;4.904;2023-12-20T10:23:13;11.07;;;3.15;;
11839;SDS011;5979;50.800;4.904;2023-12-20T10:25:40;6.43;;;3.08;;
11839;SDS011;5979;50.800;4.904;2023-12-20T10:30:46;8.52;;;3.22;;
11839;SDS011;5979;50.800;4.904;2023-12-20T10:33:12;8.18;;;3.40;;
11839;SDS011;5979;50.800;4.904;2023-12-20T10:35:38;14.32;;;3.10;;
11839;SDS011;5979;50.800;4.904;2023-12-20T10:38:05;8.10;;;3.17;;
11839;SDS011;5979;50.800;4.904;2023-12-20T10:40:35;9.10;;;3.65;;
11839;SDS011;5979;50.800;4.904;2023-12-20T10:43:02;5.60;;;3.47;;
11839;SDS011;5979;50.800;4.904;2023-12-20T10:45:28;5.55;;;2.60;;
11839;SDS011;5979;50.800;4.904;2023-12-20T10:51:13;7.63;;;2.53;;
11839;SDS011;5979;50.800;4.904;2023-12-20T10:53:42;6.40;;;2.85;;
11839;SDS011;5979;50.800;4.904;2023-12-20T10:56:08;8.65;;;3.20;;
11839;SDS011;5979;50.800;4.904;2023-12-20T10:58:41;7.30;;;2.92;;
11839;SDS011;5979;50.800;4.904;2023-12-20T11:01:08;12.18;;;4.35;;
11839;SDS011;5979;50.800;4.904;2023-12-20T11:03:35;8.05;;;3.10;;
11839;SDS011;5979;50.800;4.904;2023-12-20T11:06:09;6.57;;;3.00;;
11839;SDS011;5979;50.800;4.904;2023-12-20T11:09:01;5.28;;;3.47;;
11839;SDS011;5979;50.800;4.904;2023-12-20T11:11:52;10.48;;;2.97;;
11839;SDS011;5979;50.800;4.904;2023-12-20T11:14:33;7.15;;;3.00;;
11839;SDS011;5979;50.800;4.904;2023-12-20T11:17:06;5.45;;;2.97;;
11839;SDS011;5979;50.800;4.904;2023-12-20T11:19:35;8.20;;;2.75;;
11839;SDS011;5979;50.800;4.904;2023-12-20T11:22:03;10.68;;;3.33;;
11839;SDS011;5979;50.800;4.904;2023-12-20T11:24:30;5.75;;;2.53;;
11839;SDS011;5979;50.800;4.904;2023-12-20T11:26:59;10.77;;;3.22;;
11839;SDS011;5979;50.800;4.904;2023-12-20T11:29:29;11.10;;;3.55;;
11839;SDS011;5979;50.800;4.904;2023-12-20T11:31:56;6.75;;;2.78;;
11839;SDS011;5979;50.800;4.904;2023-12-20T11:34:22;9.45;;;3.05;;
11839;SDS011;5979;50.800;4.904;2023-12-20T11:36:56;12.65;;;3.75;;
11839;SDS011;5979;50.800;4.904;2023-12-20T11:39:23;7.18;;;2.47;;
11839;SDS011;5979;50.800;4.904;2023-12-20T11:41:53;14.32;;;3.97;;
11839;SDS011;5979;50.800;4.904;2023-12-20T11:44:21;11.38;;;3.67;;
11839;SDS011;5979;50.800;4.904;2023-12-20T11:46:47;9.73;;;3.03;;
11839;SDS011;5979;50.800;4.904;2023-12-20T11:49:13;7.47;;;3.47;;
11839;SDS011;5979;50.800;4.904;2023-12-20T11:51:42;9.38;;;3.50;;
11839;SDS011;5979;50.800;4.904;2023-12-20T11:54:08;8.80;;;3.05;;
11839;SDS011;5979;50.800;4.904;2023-12-20T11:56:35;12.80;;;3.40;;
11839;SDS011;5979;50.800;4.904;2023-12-20T11:59:01;6.45;;;3.00;;
11839;SDS011;5979;50.800;4.904;2023-12-20T12:01:28;7.18;;;3.03;;
11839;SDS011;5979;50.800;4.904;2023-12-20T12:04:03;7.47;;;3.25;;
11839;SDS011;5979;50.800;4.904;2023-12-20T12:06:32;4.90;;;2.88;;
11839;SDS011;5979;50.800;4.904;2023-12-20T12:08:58;8.93;;;3.15;;
11839;SDS011;5979;50.800;4.904;2023-12-20T12:11:24;8.95;;;3.72;;
11839;SDS011;5979;50.800;4.904;2023-12-20T12:13:50;10.82;;;3.90;;
11839;SDS011;5979;50.800;4.904;2023-12-20T12:16:22;12.05;;;3.30;;
11839;SDS011;5979;50.800;4.904;2023-12-20T12:18:54;8.82;;;3.08;;
11839;SDS011;5979;50.800;4.904;2023-12-20T12:21:24;6.78;;;3.05;;
11839;SDS011;5979;50.800;4.904;2023-12-20T12:23:50;12.65;;;3.60;;
11839;SDS011;5979;50.800;4.904;2023-12-20T12:26:16;8.48;;;3.35;;
11839;SDS011;5979;50.800;4.904;2023-12-20T12:28:42;7.75;;;2.85;;
11839;SDS011;5979;50.800;4.904;2023-12-20T12:31:08;12.15;;;3.45;;
11839;SDS011;5979;50.800;4.904;2023-12-20T12:33:38;9.27;;;3.35;;
11839;SDS011;5979;50.800;4.904;2023-12-20T12:36:06;12.95;;;3.13;;
11839;SDS011;5979;50.800;4.904;2023-12-20T12:38:33;12.50;;;3.35;;
11839;SDS011;5979;50.800;4.904;2023-12-20T12:40:59;8.25;;;2.72;;
11839;SDS011;5979;50.800;4.904;2023-12-20T12:43:25;7.90;;;3.22;;
11839;SDS011;5979;50.800;4.904;2023-12-20T12:45:51;7.20;;;3.13;;
11839;SDS011;5979;50.800;4.904;2023-12-20T12:48:17;7.45;;;3.13;;
11839;SDS011;5979;50.800;4.904;2023-12-20T12:50:43;9.07;;;3.38;;
11839;SDS011;5979;50.800;4.904;2023-12-20T12:53:10;7.75;;;2.80;;
11839;SDS011;5979;50.800;4.904;2023-12-20T12:55:36;8.10;;;3.25;;
11839;SDS011;5979;50.800;4.904;2023-12-20T12:58:01;7.70;;;2.80;;
11839;SDS011;5979;50.800;4.904;2023-12-20T13:00:30;9.30;;;3.08;;
11839;SDS011;5979;50.800;4.904;2023-12-20T13:02:56;8.45;;;2.90;;
11839;SDS011;5979;50.800;4.904;2023-12-20T13:05:21;9.23;;;3.85;;
11839;SDS011;5979;50.800;4.904;2023-12-20T13:07:47;8.98;;;3.08;;
11839;SDS011;5979;50.800;4.904;2023-12-20T13:10:13;9.10;;;3.38;;
11839;SDS011;5979;50.800;4.904;2023-12-20T13:12:41;8.73;;;3.15;;
11839;SDS011;5979;50.800;4.904;2023-12-20T13:15:07;8.73;;;3.35;;
11839;SDS011;5979;50.800;4.904;2023-12-20T13:17:34;8.02;;;3.10;;
11839;SDS011;5979;50.800;4.904;2023-12-20T13:19:59;8.88;;;3.72;;
11839;SDS011;5979;50.800;4.904;2023-12-20T13:22:25;11.73;;;3.92;;
11839;SDS011;5979;50.800;4.904;2023-12-20T13:24:51;9.70;;;3.90;;
11839;SDS011;5979;50.800;4.904;2023-12-20T13:27:17;6.68;;;3.22;;
11839;SDS011;5979;50.800;4.904;2023-12-20T13:29:42;8.60;;;2.92;;
11839;SDS011;5979;50.800;4.904;2023-12-20T13:32:08;9.25;;;3.45;;
11839;SDS011;5979;50.800;4.904;2023-12-20T13:34:34;9.50;;;3.70;;
11839;SDS011;5979;50.800;4.904;2023-12-20T13:36:59;9.32;;;3.38;;
11839;SDS011;5979;50.800;4.904;2023-12-20T13:39:26;10.07;;;3.17;;
11839;SDS011;5979;50.800;4.904;2023-12-20T13:41:51;10.10;;;3.15;;
11839;SDS011;5979;50.800;4.904;2023-12-20T13:44:17;6.57;;;4.20;;
11839;SDS011;5979;50.800;4.904;2023-12-20T13:46:43;4.43;;;3.10;;
11839;SDS011;5979;50.800;4.904;2023-12-20T13:49:08;5.70;;;3.55;;
11839;SDS011;5979;50.800;4.904;2023-12-20T13:51:34;9.18;;;3.35;;
11839;SDS011;5979;50.800;4.904;2023-12-20T13:54:00;10.20;;;3.33;;
11839;SDS011;5979;50.800;4.904;2023-12-20T13:56:25;8.40;;;3.25;;
11839;SDS011;5979;50.800;4.904;2023-12-20T13:58:51;9.95;;;3.90;;
11839;SDS011;5979;50.800;4.904;2023-12-20T14:01:17;12.57;;;3.75;;
11839;SDS011;5979;50.800;4.904;2023-12-20T14:03:43;9.88;;;3.10;;
11839;SDS011;5979;50.800;4.904;2023-12-20T14:06:08;10.73;;;3.08;;
11839;SDS011;5979;50.800;4.904;2023-12-20T14:08:34;7.45;;;3.30;;
11839;SDS011;5979;50.800;4.904;2023-12-20T14:11:01;7.68;;;3.63;;
11839;SDS011;5979;50.800;4.904;2023-12-20T14:13:27;9.23;;;3.47;;
11839;SDS011;5979;50.800;4.904;2023-12-20T14:15:53;10.15;;;3.35;;
11839;SDS011;5979;50.800;4.904;2023-12-20T14:18:19;8.98;;;3.65;;
11839;SDS011;5979;50.800;4.904;2023-12-20T14:20:45;9.80;;;3.40;;
11839;SDS011;5979;50.800;4.904;2023-12-20T14:23:12;10.80;;;3.90;;
11839;SDS011;5979;50.800;4.904;2023-12-20T14:25:41;6.70;;;3.63;;
11839;SDS011;5979;50.800;4.904;2023-12-20T14:28:07;6.43;;;3.47;;
11839;SDS011;5979;50.800;4.904;2023-12-20T14:30:32;8.77;;;3.88;;
11839;SDS011;5979;50.800;4.904;2023-12-20T14:33:00;11.40;;;4.18;;
11839;SDS011;5979;50.800;4.904;2023-12-20T14:35:25;11.20;;;3.58;;
11839;SDS011;5979;50.800;4.904;2023-12-20T14:37:51;7.97;;;4.00;;
11839;SDS011;5979;50.800;4.904;2023-12-20T14:40:17;7.72;;;3.75;;
11839;SDS011;5979;50.800;4.904;2023-12-20T14:42:43;6.88;;;3.00;;
11839;SDS011;5979;50.800;4.904;2023-12-20T14:45:09;11.88;;;3.80;;
11839;SDS011;5979;50.800;4.904;2023-12-20T14:47:39;12.25;;;3.80;;
11839;SDS011;5979;50.800;4.904;2023-12-20T14:50:05;10.55;;;4.03;;
11839;SDS011;5979;50.800;4.904;2023-12-20T14:52:32;10.95;;;2.70;;
11839;SDS011;5979;50.800;4.904;2023-12-20T14:54:59;6.90;;;3.30;;
11839;SDS011;5979;50.800;4.904;2023-12-20T14:57:28;8.32;;;3.47;;
11839;SDS011;5979;50.800;4.904;2023-12-20T14:59:57;6.80;;;3.22;;